Time;durP1;ratioP1;P1;durP2;ratioP2;P2;SDS_P1;SDS_P2;PMS_P1;PMS_P2;Temp;Humidity;BMP_temperature;BMP_pressure;BME280_temperature;BME280_humidity;BME280_pressure;Samples;Min_cycle;Max_cycle;Signal;HPM_P1;HPM_P2
2021/07/17 00:00:34;;;;;;;1999.90;999.90;;;19.70;99.90;;;;;;5055216;28;20741;-82
2021/07/17 00:03:04;;;;;;;1999.90;999.90;;;19.70;99.90;;;;;;5055505;28;20395;-82
2021/07/17 00:05:31;;;;;;;1999.90;999.90;;;19.70;99.90;;;;;;5055504;28;20448;-82
2021/07/17 00:07:57;;;;;;;1999.90;999.90;;;19.60;99.90;;;;;;5054928;28;20414;-82
2021/07/17 00:10:49;;;;;;;1999.90;999.90;;;19.60;99.90;;;;;;5055580;28;20950;-83
2021/07/17 00:13:16;;;;;;;1999.90;999.90;;;19.60;99.90;;;;;;5055495;28;20410;-82
2021/07/17 00:15:43;;;;;;;1999.90;999.90;;;19.60;99.90;;;;;;5037214;28;20427;-82
2021/07/17 00:18:08;;;;;;;1999.90;999.90;;;19.60;99.90;;;;;;5055114;28;20399;-82
2021/07/17 00:20:35;;;;;;;1999.90;999.90;;;19.60;99.90;;;;;;5055264;28;20486;-82
2021/07/17 00:23:01;;;;;;;1999.90;999.90;;;19.60;99.90;;;;;;5054975;28;20173;-82
2021/07/17 00:25:26;;;;;;;1999.90;999.90;;;19.50;99.90;;;;;;5037122;28;20437;-83
2021/07/17 00:27:53;;;;;;;1999.90;999.90;;;19.60;99.90;;;;;;5038325;28;20481;-82
2021/07/17 00:30:19;;;;;;;1999.90;999.90;;;19.60;99.90;;;;;;5037516;28;20193;-82
2021/07/17 00:32:46;;;;;;;1999.90;999.90;;;19.60;99.90;;;;;;5054817;28;20407;-82
2021/07/17 00:35:13;;;;;;;1999.90;999.90;;;19.60;99.90;;;;;;5055428;28;20446;-82
2021/07/17 00:37:39;;;;;;;1999.90;999.90;;;19.50;99.90;;;;;;5055144;28;20423;-82
2021/07/17 00:40:07;;;;;;;1999.90;999.90;;;19.50;99.90;;;;;;5055210;28;20400;-82
2021/07/17 00:42:34;;;;;;;1999.90;999.90;;;19.50;99.90;;;;;;5055025;28;20399;-82
2021/07/17 00:44:59;;;;;;;1999.90;999.90;;;19.50;99.90;;;;;;5036823;28;20408;-82
2021/07/17 00:47:26;;;;;;;1999.90;999.90;;;19.50;99.90;;;;;;5036724;28;20480;-82
2021/07/17 00:49:52;;;;;;;1999.90;999.90;;;19.50;99.90;;;;;;5054890;28;20204;-82
2021/07/17 00:52:17;;;;;;;1999.90;999.90;;;19.50;99.90;;;;;;5055118;28;20895;-82
2021/07/17 00:54:44;;;;;;;1999.90;999.90;;;19.50;99.90;;;;;;5036609;28;20445;-82
2021/07/17 00:57:10;;;;;;;1999.90;999.90;;;19.50;99.90;;;;;;5054541;28;20664;-82
2021/07/17 00:59:37;;;;;;;1999.90;999.90;;;19.50;99.90;;;;;;5054562;28;20450;-82
2021/07/17 01:02:03;;;;;;;1999.90;999.90;;;19.50;99.90;;;;;;5054859;28;20502;-82
2021/07/17 01:04:30;;;;;;;1999.90;999.90;;;19.50;99.90;;;;;;5053960;28;20453;-82
2021/07/17 01:07:00;;;;;;;1999.90;999.90;;;19.50;99.90;;;;;;5054479;28;20450;-82
2021/07/17 01:09:26;;;;;;;1999.90;999.90;;;19.50;99.90;;;;;;5054115;28;20501;-82
2021/07/17 01:11:56;;;;;;;1999.90;999.90;;;19.50;99.90;;;;;;5054394;28;20410;-82
2021/07/17 01:14:23;;;;;;;1999.90;999.90;;;19.50;99.90;;;;;;5036592;28;20407;-82
2021/07/17 01:16:49;;;;;;;1999.90;999.90;;;19.50;99.90;;;;;;5054095;28;20953;-82
2021/07/17 01:19:15;;;;;;;1999.90;999.90;;;19.50;99.90;;;;;;5054193;28;20915;-82
2021/07/17 01:21:40;;;;;;;1999.90;999.90;;;19.50;99.90;;;;;;5036381;28;20414;-82
2021/07/17 01:24:06;;;;;;;1999.90;999.90;;;19.50;99.90;;;;;;5054544;28;20168;-82
2021/07/17 01:26:32;;;;;;;1999.90;999.90;;;19.50;99.90;;;;;;5054069;28;20667;-82
2021/07/17 01:28:58;;;;;;;1999.90;999.90;;;19.50;99.90;;;;;;5036480;28;20563;-82
2021/07/17 01:31:24;;;;;;;1999.90;999.90;;;19.40;99.90;;;;;;5057234;28;20216;-82
2021/07/17 01:33:49;;;;;;;1999.90;999.90;;;19.40;99.90;;;;;;5040492;28;20188;-82
2021/07/17 01:36:15;;;;;;;1999.90;999.90;;;19.40;99.90;;;;;;5058090;28;20422;-82
2021/07/17 01:38:42;;;;;;;1999.90;999.90;;;19.40;99.90;;;;;;5058097;28;20161;-82
2021/07/17 01:41:09;;;;;;;1999.90;999.90;;;19.40;99.90;;;;;;5058408;28;20551;-82
2021/07/17 01:43:35;;;;;;;1999.90;999.90;;;19.40;99.90;;;;;;5058140;28;20878;-82
2021/07/17 01:46:01;;;;;;;1999.90;999.90;;;19.40;99.90;;;;;;5057625;28;20450;-82
2021/07/17 01:48:27;;;;;;;1999.90;999.90;;;19.40;99.90;;;;;;5058120;28;20402;-82
2021/07/17 01:50:53;;;;;;;1999.90;999.90;;;19.30;99.90;;;;;;5057942;28;20446;-82
2021/07/17 01:53:19;;;;;;;1999.90;999.90;;;19.40;99.90;;;;;;5057826;28;20187;-82
2021/07/17 01:55:45;;;;;;;1999.90;999.90;;;19.40;99.90;;;;;;5039739;28;20426;-82
2021/07/17 01:58:11;;;;;;;1999.90;999.90;;;19.40;99.90;;;;;;5039699;28;20409;-82
2021/07/17 02:00:37;;;;;;;1999.90;999.90;;;19.40;99.90;;;;;;5058041;28;20222;-82
2021/07/17 02:03:07;;;;;;;1999.90;999.90;;;19.30;99.90;;;;;;5039990;28;20418;-82
2021/07/17 02:05:33;;;;;;;1999.90;999.90;;;19.30;99.90;;;;;;5057091;28;20419;-82
2021/07/17 02:08:00;;;;;;;1999.90;999.90;;;19.30;99.90;;;;;;5039837;28;20396;-82
2021/07/17 02:10:28;;;;;;;1999.90;999.90;;;19.30;99.90;;;;;;5039314;28;20886;-82
2021/07/17 02:12:59;;;;;;;1999.90;999.90;;;19.30;99.90;;;;;;5056514;28;20407;-82
2021/07/17 02:15:25;;;;;;;1999.90;999.90;;;19.30;99.90;;;;;;5057452;28;20407;-82
2021/07/17 02:17:51;;;;;;;1999.90;999.90;;;19.30;99.90;;;;;;5040199;28;20769;-82
2021/07/17 02:20:17;;;;;;;1999.90;999.90;;;19.30;99.90;;;;;;5057198;28;20482;-82
2021/07/17 02:22:43;;;;;;;1999.90;999.90;;;19.30;99.90;;;;;;5039299;28;20492;-82
2021/07/17 02:25:09;;;;;;;1999.90;999.90;;;19.20;99.90;;;;;;5057911;28;20476;-82
2021/07/17 02:27:35;;;;;;;1999.90;999.90;;;19.30;99.90;;;;;;5057243;28;20938;-82
2021/07/17 02:30:01;;;;;;;1999.90;999.90;;;19.30;99.90;;;;;;5057318;28;20529;-82
2021/07/17 02:32:26;;;;;;;1999.90;999.90;;;19.30;99.90;;;;;;5039548;28;20199;-82
2021/07/17 02:34:53;;;;;;;1999.90;999.90;;;19.20;99.90;;;;;;5057403;28;20700;-82
2021/07/17 02:37:20;;;;;;;1999.90;999.90;;;19.20;99.90;;;;;;5039137;28;20189;-82
2021/07/17 02:39:45;;;;;;;1999.90;999.90;;;19.30;99.90;;;;;;5056986;28;20396;-82
2021/07/17 02:42:11;;;;;;;1999.90;999.90;;;19.20;99.90;;;;;;5057329;28;20415;-82
2021/07/17 02:44:37;;;;;;;1999.90;999.90;;;19.30;99.90;;;;;;5057083;28;20171;-82
2021/07/17 02:47:03;;;;;;;1999.90;999.90;;;19.30;99.90;;;;;;5057284;28;20418;-82
2021/07/17 02:49:29;;;;;;;1999.90;999.90;;;19.20;99.90;;;;;;5057044;28;20196;-82
2021/07/17 02:51:55;;;;;;;1999.90;999.90;;;19.20;99.90;;;;;;5057395;28;20183;-82
2021/07/17 02:54:21;;;;;;;1999.90;999.90;;;19.20;99.90;;;;;;5056409;28;20431;-82
2021/07/17 02:56:49;;;;;;;1999.90;999.90;;;19.20;99.90;;;;;;5056450;28;20177;-82
2021/07/17 02:59:15;;;;;;;1999.90;999.90;;;19.20;99.90;;;;;;5056501;28;20407;-82
2021/07/17 03:01:41;;;;;;;1999.90;999.90;;;19.20;99.90;;;;;;5038524;28;20407;-82
2021/07/17 03:04:06;;;;;;;1999.90;999.90;;;19.20;99.90;;;;;;5056286;28;20490;-82
2021/07/17 03:06:38;;;;;;;1999.90;999.90;;;19.20;99.90;;;;;;5090092;22;20224;-85
2021/07/17 03:09:07;;;;;;;1999.90;999.90;;;19.20;99.90;;;;;;5075324;28;20184;-85
2021/07/17 03:11:33;;;;;;;1999.90;999.90;;;19.20;99.90;;;;;;5075023;28;20394;-85
2021/07/17 03:14:08;;;;;;;1999.90;999.90;;;19.20;99.90;;;;;;5073777;28;20413;-85
2021/07/17 03:16:43;;;;;;;1999.90;999.90;;;19.20;99.90;;;;;;5075045;28;20997;-85
2021/07/17 03:19:17;;;;;;;1999.90;999.90;;;19.10;99.90;;;;;;5074923;28;20901;-85
2021/07/17 03:21:48;;;;;;;1999.90;999.90;;;19.10;99.90;;;;;;5074852;28;20375;-85
2021/07/17 03:24:14;;;;;;;1999.90;999.90;;;19.10;99.90;;;;;;5074635;28;20430;-85
2021/07/17 03:26:43;;;;;;;1999.90;999.90;;;19.10;99.90;;;;;;5073385;28;20466;-85
2021/07/17 03:29:11;;;;;;;1999.90;999.90;;;19.10;99.90;;;;;;5073374;28;20199;-85
2021/07/17 03:31:40;;;;;;;1999.90;999.90;;;19.10;99.90;;;;;;5074595;28;20448;-82
2021/07/17 03:34:06;;;;;;;1999.90;999.90;;;19.10;99.90;;;;;;5075308;28;20394;-83
2021/07/17 03:36:45;;;;;;;1999.90;999.90;;;19.10;99.90;;;;;;5073600;28;20804;-83
2021/07/17 03:39:17;;;;;;;1999.90;999.90;;;19.10;99.90;;;;;;5074974;28;20383;-83
2021/07/17 03:42:00;;;;;;;1999.90;999.90;;;19.10;99.90;;;;;;5075287;28;20453;-82
2021/07/17 03:44:35;;;;;;;1999.90;999.90;;;19.10;99.90;;;;;;5074463;28;20406;-82
2021/07/17 03:47:36;;;;;;;1999.90;999.90;;;19.10;99.90;;;;;;5091787;22;20531;-82
2021/07/17 03:50:05;;;;;;;1999.90;999.90;;;19.10;99.90;;;;;;5056835;28;20464;-83
2021/07/17 03:52:33;;;;;;;1999.90;999.90;;;19.10;99.90;;;;;;5074725;28;20926;-83
2021/07/17 03:55:03;;;;;;;1999.90;999.90;;;19.10;99.90;;;;;;5074132;28;20437;-82
2021/07/17 03:57:37;;;;;;;1999.90;999.90;;;19.10;99.90;;;;;;5074229;28;20858;-82
2021/07/17 04:00:23;;;;;;;1999.90;999.90;;;19.10;99.90;;;;;;5074412;28;20861;-82
2021/07/17 04:03:16;;;;;;;1999.90;999.90;;;19.00;99.90;;;;;;5074686;28;20461;-82
2021/07/17 04:06:02;;;;;;;1999.90;999.90;;;19.00;99.90;;;;;;5056464;28;20792;-82
2021/07/17 04:08:28;;;;;;;1999.90;999.90;;;19.00;99.90;;;;;;5074198;28;20406;-82
2021/07/17 04:11:03;;;;;;;1999.90;999.90;;;19.00;99.90;;;;;;5056244;28;20456;-83
2021/07/17 04:13:53;;;;;;;1999.90;999.90;;;19.00;99.90;;;;;;5074248;28;20190;-82
2021/07/17 04:16:21;;;;;;;1999.90;999.90;;;19.00;99.90;;;;;;5073829;28;20429;-82
2021/07/17 04:19:12;;;;;;;;;;;;;;;;;;;;;
2021/07/17 04:21:53;;;;;;;1999.90;999.90;;;19.00;99.90;;;;;;5074226;28;20377;-82
2021/07/17 04:27:26;;;;;;;1999.90;999.90;;;19.00;99.90;;;;;;5073879;28;20418;-82
2021/07/17 04:30:21;;;;;;;1999.90;999.90;;;18.90;99.90;;;;;;5074244;28;20775;-82
2021/07/17 04:33:05;;;;;;;1999.90;999.90;;;18.90;99.90;;;;;;5045079;28;20776;-82
2021/07/17 04:35:54;;;;;;;1999.90;999.90;;;18.90;99.90;;;;;;5074048;28;20861;-82
2021/07/17 04:38:40;;;;;;;1999.90;999.90;;;18.90;99.90;;;;;;5074319;28;20378;-82
2021/07/17 04:41:37;;;;;;;1999.90;999.90;;;18.90;99.90;;;;;;5055871;28;20440;-82
2021/07/17 04:44:09;;;;;;;1999.90;999.90;;;18.90;99.90;;;;;;5027508;28;20419;-82
2021/07/17 04:46:40;;;;;;;1999.90;999.90;;;18.90;99.90;;;;;;5073543;28;20454;-82
2021/07/17 04:49:18;;;;;;;1999.90;999.90;;;18.90;99.90;;;;;;5073740;28;20458;-82
2021/07/17 04:51:44;;;;;;;1999.90;999.90;;;18.90;99.90;;;;;;5073691;28;20382;-82
2021/07/17 04:54:41;;;;;;;1999.90;999.90;;;18.90;99.90;;;;;;5073708;28;20459;-82
2021/07/17 04:59:58;;;;;;;1999.90;999.90;;;18.80;99.90;;;;;;5073430;28;20401;-82
2021/07/17 05:02:57;;;;;;;;;;;;;;;;;;;;;
2021/07/17 05:06:09;;;;;;;1999.90;999.90;;;18.90;99.90;;;;;;5069028;28;20396;-81
2021/07/17 05:08:55;;;;;;;1999.90;999.90;;;18.80;99.90;;;;;;5045467;28;20939;-83
2021/07/17 05:11:39;;;;;;;1999.90;999.90;;;18.90;99.90;;;;;;5059733;28;20418;-83
2021/07/17 05:14:33;;;;;;;1999.90;999.90;;;18.80;99.90;;;;;;5059623;28;20534;-83
2021/07/17 05:17:02;;;;;;;1999.90;999.90;;;18.80;99.90;;;;;;5076190;28;20913;-82
2021/07/17 05:19:31;;;;;;;1999.90;999.90;;;18.90;99.90;;;;;;5077398;28;20398;-83
2021/07/17 05:22:03;;;;;;;1999.90;999.90;;;18.80;99.90;;;;;;5077111;28;20402;-83
2021/07/17 05:24:40;;;;;;;1999.90;999.90;;;18.90;99.90;;;;;;5077496;28;20410;-82
2021/07/17 05:27:09;;;;;;;1999.90;999.90;;;18.90;99.90;;;;;;5060058;28;20425;-83
2021/07/17 05:29:47;;;;;;;1999.90;999.90;;;18.90;99.90;;;;;;5058984;28;20482;-82
2021/07/17 05:32:28;;;;;;;1999.90;999.90;;;18.90;99.90;;;;;;5077309;28;20390;-82
2021/07/17 05:34:54;;;;;;;1999.90;999.90;;;19.00;99.90;;;;;;5077298;28;20468;-82
2021/07/17 05:37:31;;;;;;;1999.90;999.90;;;19.00;99.90;;;;;;5077000;28;20465;-82
2021/07/17 05:40:02;;;;;;;1999.90;999.90;;;19.00;99.90;;;;;;5077061;28;20237;-82
2021/07/17 05:42:43;;;;;;;1999.90;999.90;;;19.00;99.90;;;;;;5076868;28;20408;-83
2021/07/17 05:45:13;;;;;;;1999.90;999.90;;;19.10;99.90;;;;;;5058972;28;20427;-82
2021/07/17 05:47:50;;;;;;;1999.90;999.90;;;19.10;99.90;;;;;;5076725;28;20433;-82
2021/07/17 05:50:22;;;;;;;1999.90;999.90;;;19.10;99.90;;;;;;5076587;28;20453;-82
2021/07/17 05:53:20;;;;;;;;;;;;;;;;;;;;;
2021/07/17 05:55:46;;;;;;;1999.90;999.90;;;19.10;99.90;;;;;;5076699;28;20936;-82
2021/07/17 05:58:22;;;;;;;1999.90;999.90;;;19.20;99.90;;;;;;5076630;28;20486;-82
2021/07/17 06:01:14;;;;;;;1999.90;999.90;;;19.30;99.90;;;;;;5076438;28;20171;-82
2021/07/17 06:03:53;;;;;;;1999.90;999.90;;;19.30;99.90;;;;;;5076451;28;20422;-82
2021/07/17 06:06:25;;;;;;;1999.90;999.90;;;19.40;99.90;;;;;;5074956;28;20437;-82
2021/07/17 06:08:57;;;;;;;1999.90;999.90;;;19.40;99.90;;;;;;5076500;28;20398;-82
2021/07/17 06:11:35;;;;;;;1999.90;999.90;;;19.30;99.90;;;;;;5076297;28;20762;-83
2021/07/17 06:14:36;;;;;;;1999.90;999.90;;;19.40;99.90;;;;;;5076341;28;20765;-81
2021/07/17 06:17:44;;;;;;;1999.90;999.90;;;19.30;99.90;;;;;;5075546;28;20424;-82
2021/07/17 06:21:05;;;;;;;1999.90;999.90;;;19.30;99.90;;;;;;5076579;28;20390;-83
2021/07/17 06:24:02;;;;;;;1999.90;999.90;;;19.40;99.90;;;;;;5014505;28;20447;-82
2021/07/17 06:26:59;;;;;;;1999.90;999.90;;;19.40;99.90;;;;;;5014648;28;20515;-82
2021/07/17 06:33:16;;;;;;;1999.90;999.90;;;19.30;99.90;;;;;;5076021;28;20417;-82
2021/07/17 06:35:42;;;;;;;1999.90;999.90;;;19.20;99.90;;;;;;5056150;28;20418;-82
2021/07/17 06:38:11;;;;;;;1999.90;999.90;;;19.20;99.90;;;;;;5075804;28;20496;-82
2021/07/17 06:40:55;;;;;;;1999.90;999.90;;;19.20;99.90;;;;;;5075809;28;20196;-83
2021/07/17 06:43:50;;;;;;;1999.90;999.90;;;19.20;99.90;;;;;;5075853;28;20398;-82
2021/07/17 06:46:16;;;;;;;1999.90;999.90;;;19.20;99.90;;;;;;5062601;28;20483;-82
2021/07/17 06:48:56;;;;;;;1999.90;999.90;;;19.30;99.90;;;;;;5059320;28;20873;-82
2021/07/17 06:51:24;;;;;;;1999.90;999.90;;;19.20;99.90;;;;;;5057441;28;20192;-82
2021/07/17 06:54:10;;;;;;;1999.90;999.90;;;19.20;99.90;;;;;;5075445;28;20460;-82
2021/07/17 06:56:42;;;;;;;1999.90;999.90;;;19.10;99.90;;;;;;5074783;28;20442;-82
2021/07/17 06:59:23;;;;;;;1999.90;999.90;;;19.20;99.90;;;;;;5058090;28;20925;-83
2021/07/17 07:02:09;;;;;;;1999.90;999.90;;;19.20;99.90;;;;;;5075720;28;20406;-83
2021/07/17 07:04:34;;;;;;;1999.90;999.90;;;19.20;99.90;;;;;;5075838;28;20425;-82
2021/07/17 07:07:15;;;;;;;1999.90;999.90;;;19.20;99.90;;;;;;5057649;28;20458;-82
2021/07/17 07:10:18;;;;;;;1999.90;999.90;;;19.30;99.90;;;;;;5075425;28;20187;-82
2021/07/17 07:13:09;;;;;;;1999.90;999.90;;;19.30;99.90;;;;;;5054374;28;20416;-82
2021/07/17 07:19:23;;;;;;;1999.90;999.90;;;19.30;99.90;;;;;;5016121;28;20376;-82
2021/07/17 07:21:57;;;;;;;1999.90;999.90;;;19.20;99.90;;;;;;5069523;28;20398;-83
2021/07/17 07:24:33;;;;;;;1999.90;999.90;;;19.20;99.90;;;;;;5053317;28;20407;-82
2021/07/17 07:26:59;;;;;;;1999.90;999.90;;;19.30;99.90;;;;;;5071559;28;20504;-82
2021/07/17 07:29:31;;;;;;;1999.90;999.90;;;19.20;99.90;;;;;;5074397;28;20991;-82
2021/07/17 07:31:59;;;;;;;1999.90;999.90;;;19.30;99.90;;;;;;5075037;28;20398;-82
2021/07/17 07:34:47;;;;;;;1999.90;999.90;;;19.20;99.90;;;;;;5075151;28;20484;-82
2021/07/17 07:37:25;;;;;;;1999.90;999.90;;;19.20;99.90;;;;;;5075191;28;20917;-82
2021/07/17 07:40:04;;;;;;;1999.90;999.90;;;19.30;99.90;;;;;;5075104;28;20471;-81
2021/07/17 07:42:30;;;;;;;1999.90;999.90;;;19.30;99.90;;;;;;5074890;28;20394;-82
2021/07/17 07:44:56;;;;;;;1999.90;999.90;;;19.30;99.90;;;;;;5075212;28;20493;-83
2021/07/17 07:47:23;;;;;;;1999.90;999.90;;;19.40;99.90;;;;;;5056717;28;20192;-82
2021/07/17 07:49:52;;;;;;;1999.90;999.90;;;19.40;99.90;;;;;;5056984;28;20192;-82
2021/07/17 07:52:18;;;;;;;1999.90;999.90;;;19.60;99.90;;;;;;5074545;28;20437;-82
2021/07/17 07:54:45;;;;;;;1999.90;999.90;;;19.60;99.90;;;;;;5056516;28;20463;-82
2021/07/17 07:57:11;;;;;;;1999.90;999.90;;;19.70;99.90;;;;;;5074496;28;20765;-83
2021/07/17 07:59:37;;;;;;;1999.90;999.90;;;19.60;99.90;;;;;;5074869;28;20432;-81
2021/07/17 08:02:03;;;;;;;1999.90;999.90;;;19.70;99.90;;;;;;5075072;28;20400;-82
2021/07/17 08:04:29;;;;;;;1999.90;999.90;;;19.50;99.90;;;;;;5075644;28;20175;-82
2021/07/17 08:06:55;;;;;;;1999.90;999.90;;;19.60;99.90;;;;;;5056794;28;20192;-82
2021/07/17 08:09:23;;;;;;;1999.90;999.90;;;19.60;99.90;;;;;;5074496;28;20450;-82
2021/07/17 08:11:52;;;;;;;1999.90;999.90;;;19.60;99.90;;;;;;5076270;28;20207;-83
2021/07/17 08:14:18;;;;;;;1999.90;999.90;;;19.70;99.90;;;;;;5086759;28;20378;-83
2021/07/17 08:16:44;;;;;;;1999.90;999.90;;;19.70;99.90;;;;;;5084295;28;20416;-83
2021/07/17 08:19:10;;;;;;;1999.90;999.90;;;19.70;99.90;;;;;;5086056;28;20950;-82
2021/07/17 08:21:36;;;;;;;1999.90;999.90;;;19.80;99.90;;;;;;5084831;28;20406;-82
2021/07/17 08:24:03;;;;;;;1999.90;999.90;;;19.80;99.90;;;;;;5086529;28;20173;-82
2021/07/17 08:26:29;;;;;;;1999.90;999.90;;;19.90;99.90;;;;;;5084895;28;20462;-82
2021/07/17 08:28:57;;;;;;;1999.90;999.90;;;20.00;99.90;;;;;;5086293;28;20561;-82
2021/07/17 08:31:22;;;;;;;1999.90;999.90;;;20.00;99.90;;;;;;5083565;28;20796;-81
2021/07/17 08:33:48;;;;;;;1999.90;999.90;;;20.00;99.90;;;;;;5073589;28;20410;-81
2021/07/17 08:36:14;;;;;;;1999.90;999.90;;;20.00;99.90;;;;;;5055888;28;20628;-82
2021/07/17 08:38:39;;;;;;;1999.90;999.90;;;20.00;99.90;;;;;;5073829;28;20250;-81
2021/07/17 08:41:11;;;;;;;1999.90;999.90;;;20.00;99.90;;;;;;5074171;28;20203;-81
2021/07/17 08:43:40;;;;;;;1999.90;999.90;;;20.20;99.90;;;;;;5061620;28;20164;-81
2021/07/17 08:46:06;;;;;;;1999.90;999.90;;;20.20;99.90;;;;;;5084051;28;20445;-85
2021/07/17 08:48:33;;;;;;;1999.90;999.90;;;20.30;99.90;;;;;;5084765;28;20406;-84
2021/07/17 08:51:00;;;;;;;1999.90;999.90;;;20.30;99.90;;;;;;5084594;28;20455;-84
2021/07/17 08:53:26;;;;;;;1999.90;999.90;;;20.30;99.90;;;;;;5084427;28;20408;-84
2021/07/17 08:55:54;;;;;;;1999.90;999.90;;;20.30;99.90;;;;;;5084538;28;20498;-84
2021/07/17 08:58:20;;;;;;;1999.90;999.90;;;20.40;99.90;;;;;;5085529;28;20746;-82
2021/07/17 09:00:46;;;;;;;1999.90;999.90;;;20.30;99.90;;;;;;5085182;28;20434;-82
2021/07/17 09:03:17;;;;;;;1999.90;999.90;;;20.40;99.90;;;;;;5085121;28;20415;-81
2021/07/17 09:08:13;;;;;;;1999.90;999.90;;;20.60;99.90;;;;;;5076203;28;20462;-83
2021/07/17 09:10:51;;;;;;;1999.90;999.90;;;20.60;99.90;;;;;;5076601;28;20442;-83
2021/07/17 09:13:23;;;;;;;1999.90;999.90;;;20.50;99.90;;;;;;5076295;28;20423;-83
2021/07/17 09:15:53;;;;;;;1999.90;999.90;;;20.50;99.90;;;;;;5077875;28;20434;-83
2021/07/17 09:18:25;;;;;;;1999.90;999.90;;;20.60;99.90;;;;;;5077400;28;20410;-83
2021/07/17 09:21:04;;;;;;;1999.90;999.90;;;20.80;99.90;;;;;;5077781;28;20908;-83
2021/07/17 09:23:33;;;;;;;1999.90;999.90;;;20.90;99.90;;;;;;5076292;28;20414;-83
2021/07/17 09:26:01;;;;;;;1999.90;999.90;;;20.80;99.90;;;;;;5078112;28;20496;-83
2021/07/17 09:28:30;;;;;;;1999.90;999.90;;;20.80;99.90;;;;;;5076910;28;20506;-83
2021/07/17 09:30:58;;;;;;;1999.90;999.90;;;20.80;99.90;;;;;;5075912;28;20483;-83
2021/07/17 09:33:25;;;;;;;1999.90;999.90;;;20.80;99.90;;;;;;5078343;28;20425;-83
2021/07/17 09:35:52;;;;;;;1999.90;999.90;;;20.80;99.90;;;;;;5077677;28;20412;-83
2021/07/17 09:38:20;;;;;;;1999.90;999.90;;;20.90;99.90;;;;;;5077637;28;20397;-82
2021/07/17 09:40:47;;;;;;;1999.90;999.90;;;20.90;99.90;;;;;;5075824;28;20427;-83
2021/07/17 09:43:25;;;;;;;1999.90;999.90;;;21.00;99.90;;;;;;5075605;28;20401;-83
2021/07/17 09:45:52;;;;;;;1999.90;999.90;;;21.10;99.90;;;;;;5076017;28;20437;-83
2021/07/17 09:48:24;;;;;;;1999.90;999.90;;;21.30;99.90;;;;;;5075450;28;20417;-82
2021/07/17 09:50:51;;;;;;;1999.90;999.90;;;21.30;99.90;;;;;;5075338;28;20442;-83
2021/07/17 09:53:40;;;;;;;1999.90;999.90;;;21.40;99.90;;;;;;5080016;28;20408;-82
2021/07/17 09:56:17;;;;;;;1999.90;999.90;;;21.40;99.90;;;;;;5079536;28;20428;-83
2021/07/17 09:58:43;;;;;;;1999.90;999.90;;;21.40;99.90;;;;;;5080467;28;20429;-83
2021/07/17 10:01:32;;;;;;;1999.90;999.90;;;21.40;99.90;;;;;;5080661;28;20757;-83
2021/07/17 10:04:04;;;;;;;1999.90;999.90;;;21.50;99.90;;;;;;5079070;28;20406;-83
2021/07/17 10:06:35;;;;;;;1999.90;999.90;;;21.50;99.90;;;;;;5079319;28;20446;-83
2021/07/17 10:09:04;;;;;;;1999.90;999.90;;;21.60;99.90;;;;;;5081117;28;20404;-84
2021/07/17 10:11:31;;;;;;;1999.90;999.90;;;21.70;99.90;;;;;;5079962;28;20402;-83
2021/07/17 10:13:57;;;;;;;1999.90;999.90;;;21.80;99.90;;;;;;5079776;28;20938;-83
2021/07/17 10:16:26;;;;;;;1999.90;999.90;;;21.80;99.90;;;;;;5079243;28;20430;-82
2021/07/17 10:18:54;;;;;;;1999.90;999.90;;;21.90;99.90;;;;;;5080095;28;20397;-83
2021/07/17 10:21:21;;;;;;;1999.90;999.90;;;22.00;99.90;;;;;;5080063;28;20485;-83
2021/07/17 10:23:47;;;;;;;1999.90;999.90;;;22.00;99.90;;;;;;5080964;28;20406;-84
2021/07/17 10:26:13;;;;;;;1999.90;999.90;;;22.10;99.90;;;;;;5079354;28;20423;-83
2021/07/17 10:28:39;;;;;;;1999.90;999.90;;;22.10;99.90;;;;;;5079017;28;20414;-83
2021/07/17 10:31:06;;;;;;;1999.90;999.90;;;22.00;99.90;;;;;;5080224;28;20446;-83
2021/07/17 10:33:34;;;;;;;1999.90;999.90;;;22.10;99.90;;;;;;5079957;28;20855;-83
2021/07/17 10:36:08;;;;;;;1999.90;999.90;;;22.20;99.90;;;;;;5078361;28;20517;-84
2021/07/17 10:38:39;;;;;;;1999.90;999.90;;;22.20;99.90;;;;;;5079018;28;20439;-83
2021/07/17 10:41:18;;;;;;;1999.90;999.90;;;22.30;99.90;;;;;;5079264;28;20416;-83
2021/07/17 10:43:54;;;;;;;1999.90;999.90;;;22.50;99.90;;;;;;5078571;28;20410;-83
2021/07/17 10:46:35;;;;;;;1999.90;999.90;;;22.80;99.90;;;;;;5078133;28;20429;-82
2021/07/17 10:49:03;;;;;;;1999.90;999.90;;;23.10;99.90;;;;;;5078503;28;20421;-83
2021/07/17 10:51:34;;;;;;;1999.90;999.90;;;23.30;99.90;;;;;;5077049;28;20402;-83
2021/07/17 10:54:03;;;;;;;1999.90;999.90;;;23.40;99.90;;;;;;5078874;28;20403;-83
2021/07/17 10:56:28;;;;;;;1999.90;999.90;;;23.30;99.90;;;;;;5078930;28;20509;-83
2021/07/17 10:59:10;;;;;;;1999.90;999.90;;;23.20;99.90;;;;;;5077604;28;20429;-83
2021/07/17 11:02:02;;;;;;;1999.90;999.90;;;23.20;99.90;;;;;;5079422;28;20152;-83
2021/07/17 11:04:44;;;;;;;1999.90;999.90;;;23.50;99.90;;;;;;5078585;28;20901;-83
2021/07/17 11:07:16;;;;;;;1999.90;999.90;;;23.80;99.90;;;;;;5077714;28;20442;-82
2021/07/17 11:10:02;;;;;;;1999.90;999.90;;;24.10;99.90;;;;;;5078068;28;20477;-83
2021/07/17 11:12:35;;;;;;;1999.90;999.90;;;24.30;99.90;;;;;;5079154;28;20537;-83
2021/07/17 11:15:09;;;;;;;1999.90;999.90;;;24.20;99.90;;;;;;5078755;28;20402;-84
2021/07/17 11:17:46;;;;;;;1999.90;999.90;;;24.20;99.90;;;;;;5078973;28;20409;-84
2021/07/17 11:20:25;;;;;;;1999.90;999.90;;;24.20;99.90;;;;;;5077731;28;20494;-84
2021/07/17 11:23:11;;;;;;;1999.90;999.90;;;24.40;99.90;;;;;;5078653;28;20774;-83
2021/07/17 11:25:37;;;;;;;1999.90;999.90;;;24.50;99.90;;;;;;5079052;28;20915;-83
2021/07/17 11:28:04;;;;;;;1999.90;999.90;;;24.60;99.90;;;;;;5079048;28;20489;-83
2021/07/17 11:30:35;;;;;;;1999.90;999.90;;;24.80;99.90;;;;;;5078116;28;20507;-83
2021/07/17 11:33:14;;;;;;;1999.90;999.90;;;24.90;99.90;;;;;;5076818;28;20422;-83
2021/07/17 11:35:44;;;;;;;1999.90;999.90;;;25.00;99.90;;;;;;5077767;28;20405;-82
2021/07/17 11:38:13;;;;;;;1999.90;999.90;;;25.10;99.90;;;;;;5077816;28;20803;-83
2021/07/17 11:40:39;;;;;;;1999.90;999.90;;;25.30;99.90;;;;;;5078248;28;20422;-83
2021/07/17 11:43:10;;;;;;;1999.90;999.90;;;25.30;99.90;;;;;;5077577;28;20537;-83
2021/07/17 11:45:36;;;;;;;1999.90;999.90;;;25.40;99.90;;;;;;5078347;28;20450;-83
2021/07/17 11:48:15;;;;;;;1999.90;999.90;;;25.60;99.90;;;;;;5076743;28;20420;-83
2021/07/17 11:50:43;;;;;;;1999.90;999.90;;;25.80;99.90;;;;;;5078900;28;20441;-83
2021/07/17 11:53:16;;;;;;;1999.90;999.90;;;25.80;99.90;;;;;;5077742;28;20405;-83
2021/07/17 11:55:42;;;;;;;1999.90;999.90;;;26.00;99.90;;;;;;5078319;28;20430;-83
2021/07/17 11:58:18;;;;;;;1999.90;999.90;;;26.00;99.90;;;;;;5077109;28;20412;-84
2021/07/17 12:00:44;;;;;;;1999.90;999.90;;;26.00;99.90;;;;;;5077601;28;20895;-84
2021/07/17 12:03:10;;;;;;;1999.90;999.90;;;26.20;96.20;;;;;;5076693;28;21015;-84
2021/07/17 12:05:36;;;;;;;1999.90;999.90;;;26.30;98.90;;;;;;5076742;28;20444;-83
2021/07/17 12:08:05;;;;;;;1999.90;999.90;;;26.30;95.70;;;;;;5076087;28;20285;-84
2021/07/17 12:10:34;;;;;;;1999.90;999.90;;;26.20;96.30;;;;;;5078319;28;20480;-86
2021/07/17 12:13:27;;;;;;;1999.90;999.90;;;26.10;95.00;;;;;;5078075;28;20409;-86
2021/07/17 12:15:54;;;;;;;1999.90;999.90;;;26.10;93.80;;;;;;5077939;28;20443;-86
2021/07/17 12:18:34;;;;;;;1999.90;999.90;;;26.30;95.10;;;;;;5078196;28;20971;-85
2021/07/17 12:21:26;;;;;;;1999.90;999.90;;;26.50;95.70;;;;;;5078037;28;20503;-86
2021/07/17 12:24:01;;;;;;;1999.90;999.90;;;26.60;91.90;;;;;;5066020;28;20426;-84
2021/07/17 12:26:29;;;;;;;1999.90;999.90;;;26.40;92.60;;;;;;5080340;28;20428;-84
2021/07/17 12:28:55;;;;;;;1999.90;999.90;;;26.20;92.90;;;;;;5080284;28;20416;-83
2021/07/17 12:31:21;;;;;;;1999.90;999.90;;;25.80;95.00;;;;;;5079597;28;20445;-84
2021/07/17 12:33:48;;;;;;;1999.90;999.90;;;25.50;95.40;;;;;;5081032;28;20155;-82
2021/07/17 12:36:14;;;;;;;1999.90;999.90;;;25.90;97.20;;;;;;5079353;28;20197;-83
2021/07/17 12:38:48;;;;;;;1999.90;999.90;;;25.70;95.90;;;;;;5081880;28;20411;-83
2021/07/17 12:41:17;;;;;;;1999.90;999.90;;;25.70;95.70;;;;;;5081520;28;20384;-83
2021/07/17 12:43:48;;;;;;;1999.90;999.90;;;25.70;95.80;;;;;;5078594;28;20414;-83